Time;durP1;ratioP1;P1;durP2;ratioP2;P2;SDS_P1;SDS_P2;PMS_P1;PMS_P2;Temp;Humidity;BMP_temperature;BMP_pressure;BME280_temperature;BME280_humidity;BME280_pressure;Samples;Min_cycle;Max_cycle;Signal;HPM_P1;HPM_P2
2023/11/02 00:00:56;;;;;;;5.72;1.55;;;11.90;99.90;;;;;;4965241;28;20077;-69
2023/11/02 00:03:32;;;;;;;4.25;1.65;;;11.90;99.90;;;;;;4964495;28;20520;-69
2023/11/02 00:06:04;;;;;;;4.88;1.55;;;12.00;99.90;;;;;;4965317;28;20039;-70
2023/11/02 00:08:35;;;;;;;3.67;1.35;;;12.00;99.90;;;;;;4963647;28;20023;-72
2023/11/02 00:11:42;;;;;;;4.47;2.00;;;12.00;99.90;;;;;;4966089;28;20420;-72
2023/11/02 00:14:09;;;;;;;8.27;2.00;;;12.00;99.90;;;;;;4966803;28;20026;-69
2023/11/02 00:16:34;;;;;;;5.85;1.70;;;12.00;99.90;;;;;;4960840;28;20499;-69
2023/11/02 00:19:00;;;;;;;4.22;1.38;;;12.00;99.90;;;;;;4962625;28;20035;-69
2023/11/02 00:21:27;;;;;;;4.72;1.27;;;12.10;99.90;;;;;;4966354;28;20488;-68
2023/11/02 00:23:53;;;;;;;6.97;1.55;;;12.10;99.90;;;;;;4963729;28;20031;-69
2023/11/02 00:26:19;;;;;;;6.70;1.67;;;12.00;99.90;;;;;;4966428;28;20135;-69
2023/11/02 00:28:45;;;;;;;5.20;1.30;;;12.00;99.90;;;;;;4970956;28;20042;-68
2023/11/02 00:31:11;;;;;;;8.43;1.48;;;12.10;99.90;;;;;;4974245;28;20023;-70
2023/11/02 00:33:36;;;;;;;7.70;1.45;;;12.10;99.90;;;;;;4972585;28;20026;-68
2023/11/02 00:36:02;;;;;;;4.80;1.58;;;12.10;99.90;;;;;;4987244;28;20362;-69
2023/11/02 00:38:28;;;;;;;4.22;1.50;;;12.10;99.90;;;;;;4972392;28;20027;-69
2023/11/02 00:40:58;;;;;;;3.67;1.13;;;12.10;99.90;;;;;;4969264;28;20174;-70
2023/11/02 00:43:24;;;;;;;6.18;1.60;;;12.10;99.90;;;;;;4972224;28;20091;-68
2023/11/02 00:45:52;;;;;;;5.18;1.48;;;12.10;99.90;;;;;;4968665;28;20039;-69
2023/11/02 00:48:21;;;;;;;9.38;2.00;;;12.20;99.90;;;;;;4973247;28;20369;-70
2023/11/02 00:50:59;;;;;;;2.50;1.25;;;12.20;99.90;;;;;;4965245;28;20023;-69
2023/11/02 00:53:26;;;;;;;7.05;1.58;;;12.20;99.90;;;;;;4971356;28;20026;-68
2023/11/02 00:55:52;;;;;;;5.57;1.83;;;12.20;99.90;;;;;;4966406;28;20089;-68
2023/11/02 00:58:28;;;;;;;6.70;1.98;;;12.30;99.90;;;;;;4970283;28;20027;-68
2023/11/02 01:00:54;;;;;;;8.63;1.40;;;12.20;99.90;;;;;;4972337;28;20027;-67
2023/11/02 01:03:21;;;;;;;4.45;1.33;;;12.10;99.90;;;;;;4971729;28;20038;-71
2023/11/02 01:05:48;;;;;;;7.13;1.70;;;12.10;99.90;;;;;;4968676;28;20031;-69
2023/11/02 01:08:15;;;;;;;4.07;1.58;;;12.10;99.90;;;;;;4972192;28;20108;-70
2023/11/02 01:10:42;;;;;;;7.85;1.75;;;12.20;99.90;;;;;;4975077;28;20030;-68
2023/11/02 01:13:10;;;;;;;9.32;1.50;;;12.10;99.90;;;;;;4972099;28;20031;-70
2023/11/02 01:15:47;;;;;;;5.65;1.10;;;12.20;99.90;;;;;;4975399;28;20027;-68
2023/11/02 01:18:14;;;;;;;5.85;1.30;;;12.20;99.90;;;;;;4975534;28;20034;-69
2023/11/02 01:20:39;;;;;;;4.38;1.63;;;12.30;99.90;;;;;;4972702;28;20027;-68
2023/11/02 01:23:14;;;;;;;2.97;1.27;;;12.30;99.90;;;;;;4975308;28;20464;-68
2023/11/02 01:25:49;;;;;;;3.10;1.10;;;12.20;99.90;;;;;;4969813;28;20039;-68
2023/11/02 01:28:20;;;;;;;5.45;1.08;;;12.30;99.90;;;;;;4974737;28;20428;-68
2023/11/02 01:31:10;;;;;;;4.32;1.50;;;12.30;99.90;;;;;;4982821;28;20046;-71
2023/11/02 01:33:55;;;;;;;7.03;1.88;;;12.30;99.90;;;;;;4972407;28;20494;-68
2023/11/02 01:36:29;;;;;;;10.88;1.40;;;12.20;99.90;;;;;;4973696;28;20026;-67
2023/11/02 01:39:15;;;;;;;8.27;1.77;;;12.20;99.90;;;;;;4973649;28;20046;-68
2023/11/02 01:41:49;;;;;;;6.55;1.35;;;12.30;99.90;;;;;;4946686;28;20444;-69
2023/11/02 01:44:20;;;;;;;4.10;1.08;;;12.30;99.90;;;;;;4974664;28;20031;-69
2023/11/02 01:46:54;;;;;;;8.15;1.65;;;12.30;99.90;;;;;;4971287;28;20113;-68
2023/11/02 01:49:34;;;;;;;9.98;1.77;;;12.30;99.90;;;;;;4973784;28;20476;-68
2023/11/02 01:52:23;;;;;;;6.63;1.48;;;12.30;99.90;;;;;;4970439;28;20030;-69
2023/11/02 01:54:48;;;;;;;7.07;1.35;;;12.30;99.90;;;;;;4974675;28;20023;-68
2023/11/02 01:57:47;;;;;;;7.22;1.08;;;12.40;99.90;;;;;;4974824;28;20384;-69
2023/11/02 02:00:16;;;;;;;6.32;1.30;;;12.30;99.90;;;;;;4972255;28;20077;-68
2023/11/02 02:02:41;;;;;;;12.88;2.00;;;12.30;99.90;;;;;;4986181;28;20034;-68
2023/11/02 02:05:24;;;;;;;7.47;1.17;;;12.30;99.90;;;;;;4974539;28;20042;-69
2023/11/02 02:07:57;;;;;;;;;;;12.30;99.90;;;;;;4971982;28;20023;-68
2023/11/02 02:10:36;;;;;;;4.78;1.23;;;12.40;99.90;;;;;;4974440;28;20371;-69
2023/11/02 02:13:36;;;;;;;8.02;1.20;;;12.40;99.90;;;;;;4974722;28;20023;-68
2023/11/02 02:16:29;;;;;;;13.15;1.55;;;12.40;99.90;;;;;;4971246;28;20510;-68
2023/11/02 02:19:13;;;;;;;8.00;1.33;;;12.40;99.90;;;;;;4973476;28;20058;-68
2023/11/02 02:21:48;;;;;;;6.68;1.40;;;12.40;99.90;;;;;;4970616;28;20049;-69
2023/11/02 02:24:30;;;;;;;9.85;1.70;;;12.40;99.90;;;;;;4973358;28;20038;-70
2023/11/02 02:27:08;;;;;;;9.00;1.35;;;12.40;99.90;;;;;;4974019;28;20022;-69
2023/11/02 02:30:05;;;;;;;9.52;2.05;;;12.50;99.90;;;;;;4971435;28;20034;-68
2023/11/02 02:32:52;;;;;;;3.20;1.23;;;12.50;99.90;;;;;;4971045;28;20019;-69
2023/11/02 02:35:41;;;;;;;7.88;1.15;;;12.50;99.90;;;;;;4967763;28;20034;-67
2023/11/02 02:38:35;;;;;;;9.45;1.70;;;12.40;99.90;;;;;;4973707;28;20383;-69
2023/11/02 02:41:08;;;;;;;6.47;1.33;;;12.40;99.90;;;;;;4973898;28;20023;-69
2023/11/02 02:43:36;;;;;;;8.32;1.40;;;12.40;99.90;;;;;;4974464;28;20031;-68
2023/11/02 02:46:04;;;;;;;5.85;1.40;;;12.40;99.90;;;;;;4971500;28;20046;-69
2023/11/02 02:48:32;;;;;;;10.65;1.40;;;12.50;99.90;;;;;;4970858;28;20396;-69
2023/11/02 02:51:04;;;;;;;7.78;1.70;;;12.40;99.90;;;;;;4973508;28;20105;-67
2023/11/02 02:53:33;;;;;;;4.82;1.20;;;12.40;99.90;;;;;;4969290;28;20392;-68
2023/11/02 02:56:09;;;;;;;9.77;1.23;;;12.40;99.90;;;;;;4973186;28;20063;-69
2023/11/02 02:58:44;;;;;;;7.45;1.20;;;12.50;99.90;;;;;;4974208;28;20035;-68
2023/11/02 03:01:12;;;;;;;7.22;1.50;;;12.40;99.90;;;;;;4972775;28;20030;-70
2023/11/02 03:03:41;;;;;;;4.15;1.50;;;12.40;99.90;;;;;;4973898;28;20058;-70
2023/11/02 03:06:07;;;;;;;8.98;1.15;;;12.50;99.90;;;;;;4973564;28;20073;-68
2023/11/02 03:08:35;;;;;;;3.53;1.35;;;12.50;99.90;;;;;;4973896;28;20038;-68
2023/11/02 03:11:02;;;;;;;4.78;1.35;;;12.60;99.90;;;;;;4973220;28;20018;-69
2023/11/02 03:13:29;;;;;;;7.10;1.20;;;12.60;99.90;;;;;;4970420;28;20030;-73
2023/11/02 03:16:00;;;;;;;9.27;1.48;;;12.60;99.90;;;;;;4973067;28;20027;-70
2023/11/02 03:18:34;;;;;;;3.53;1.00;;;12.60;99.90;;;;;;4973644;28;20027;-69
2023/11/02 03:20:59;;;;;;;6.70;1.58;;;12.60;99.90;;;;;;4973605;28;20053;-71
2023/11/02 03:23:46;;;;;;;8.93;1.50;;;12.60;99.90;;;;;;4973106;28;20054;-68
2023/11/02 03:26:42;;;;;;;4.25;1.50;;;12.60;99.90;;;;;;4967661;28;20058;-70
2023/11/02 03:29:22;;;;;;;6.25;1.30;;;12.60;99.90;;;;;;4970825;28;20032;-68
2023/11/02 03:32:13;;;;;;;6.53;1.10;;;12.70;99.90;;;;;;4973012;28;20026;-68
2023/11/02 03:34:49;;;;;;;2.55;1.13;;;12.70;99.90;;;;;;4971553;28;20034;-68
2023/11/02 03:37:16;;;;;;;6.15;1.17;;;12.70;99.90;;;;;;4969550;28;20070;-69
2023/11/02 03:40:00;;;;;;;5.43;1.00;;;12.80;99.90;;;;;;4972606;28;20038;-69
2023/11/02 03:42:56;;;;;;;3.97;0.93;;;12.80;99.90;;;;;;4969935;28;20030;-68
2023/11/02 03:45:44;;;;;;;7.68;1.05;;;12.90;99.90;;;;;;4966394;28;20089;-68
2023/11/02 03:48:24;;;;;;;3.17;0.70;;;12.90;99.90;;;;;;4971667;28;20042;-70
2023/11/02 03:50:56;;;;;;;2.97;0.90;;;12.90;99.90;;;;;;4973049;28;20031;-71
2023/11/02 03:53:21;;;;;;;5.03;0.73;;;12.90;99.90;;;;;;4972623;28;20041;-69
2023/11/02 03:56:21;;;;;;;4.10;1.10;;;12.90;99.90;;;;;;4972988;28;20019;-71
2023/11/02 03:59:06;;;;;;;5.93;0.95;;;12.80;99.90;;;;;;4972383;28;20042;-71
2023/11/02 04:01:49;;;;;;;3.30;0.70;;;12.80;99.90;;;;;;4972724;28;20041;-67
2023/11/02 04:04:30;;;;;;;4.00;1.13;;;12.80;99.90;;;;;;4970849;28;20038;-68
2023/11/02 04:07:03;;;;;;;2.78;0.73;;;12.70;99.90;;;;;;4969090;28;20054;-68
2023/11/02 04:09:42;;;;;;;2.70;0.77;;;12.70;99.90;;;;;;4972242;28;20038;-70
2023/11/02 04:12:34;;;;;;;4.38;0.82;;;12.70;99.90;;;;;;4965490;28;20045;-68
2023/11/02 04:15:02;;;;;;;2.63;0.80;;;12.70;99.90;;;;;;4962556;28;20067;-72
2023/11/02 04:17:28;;;;;;;2.47;0.80;;;12.80;99.90;;;;;;4971992;28;20094;-70
2023/11/02 04:19:55;;;;;;;5.15;1.35;;;12.70;99.90;;;;;;4970682;28;20031;-70
2023/11/02 04:22:20;;;;;;;2.47;0.75;;;12.70;99.90;;;;;;4972644;28;20469;-68
2023/11/02 04:24:46;;;;;;;7.07;1.17;;;12.70;99.90;;;;;;4969487;28;20046;-68
2023/11/02 04:27:12;;;;;;;5.20;0.90;;;12.70;99.90;;;;;;4971804;28;20477;-68
2023/11/02 04:29:38;;;;;;;3.25;0.93;;;12.70;99.90;;;;;;4972512;28;20058;-69
2023/11/02 04:32:04;;;;;;;5.22;1.00;;;12.70;99.90;;;;;;4969759;28;20110;-68
2023/11/02 04:34:29;;;;;;;2.63;0.80;;;12.80;99.90;;;;;;4972437;28;20061;-68
2023/11/02 04:36:55;;;;;;;3.30;0.82;;;12.80;99.90;;;;;;4972322;28;20077;-70
2023/11/02 04:39:22;;;;;;;3.15;1.15;;;12.80;99.90;;;;;;4972519;28;20023;-69
2023/11/02 04:41:48;;;;;;;3.90;0.90;;;12.80;99.90;;;;;;4969563;28;20027;-70
2023/11/02 04:44:14;;;;;;;3.50;0.98;;;12.80;99.90;;;;;;4973427;28;20042;-69
2023/11/02 04:46:40;;;;;;;2.72;0.82;;;12.80;99.90;;;;;;4976141;28;20023;-68
2023/11/02 04:49:07;;;;;;;1.88;0.73;;;12.70;99.90;;;;;;4976570;28;20066;-72
2023/11/02 04:51:33;;;;;;;3.55;0.82;;;12.80;99.90;;;;;;4972765;28;20027;-71
2023/11/02 04:53:59;;;;;;;2.05;0.45;;;12.70;99.90;;;;;;4976377;28;20026;-68
2023/11/02 04:56:24;;;;;;;3.13;0.85;;;12.70;99.90;;;;;;4977022;28;20030;-70
2023/11/02 04:58:50;;;;;;;7.03;1.02;;;12.70;99.90;;;;;;4976231;28;20026;-69
2023/11/02 05:01:16;;;;;;;3.40;0.80;;;12.80;99.90;;;;;;4974050;28;20499;-70
2023/11/02 05:03:42;;;;;;;3.67;0.75;;;12.70;99.90;;;;;;4968802;28;20035;-69
2023/11/02 05:06:08;;;;;;;4.38;1.40;;;12.80;99.90;;;;;;4974369;28;20038;-68
2023/11/02 05:08:35;;;;;;;4.28;2.50;;;12.80;99.90;;;;;;4974328;28;20384;-68
2023/11/02 05:11:01;;;;;;;4.65;2.55;;;12.90;99.90;;;;;;4976207;28;20166;-70
2023/11/02 05:13:26;;;;;;;6.78;2.00;;;12.80;99.90;;;;;;4971055;28;20467;-70
2023/11/02 05:15:55;;;;;;;3.40;1.50;;;12.70;99.90;;;;;;4974797;28;20027;-70
2023/11/02 05:18:21;;;;;;;3.50;0.75;;;12.70;99.90;;;;;;4972267;28;20029;-69
2023/11/02 05:20:47;;;;;;;3.25;0.93;;;12.80;99.90;;;;;;4974740;28;20027;-70
2023/11/02 05:23:12;;;;;;;1.70;0.70;;;12.80;99.90;;;;;;4973334;28;20031;-72
2023/11/02 05:25:38;;;;;;;1.67;0.50;;;12.80;99.90;;;;;;4975123;28;20476;-68
2023/11/02 05:28:04;;;;;;;1.13;0.82;;;12.70;99.90;;;;;;4976054;28;20030;-69
2023/11/02 05:30:30;;;;;;;4.22;0.77;;;12.80;99.90;;;;;;4975133;28;20041;-69
2023/11/02 05:32:55;;;;;;;3.15;0.82;;;12.90;99.90;;;;;;4975877;28;20015;-68
2023/11/02 05:35:21;;;;;;;3.80;1.02;;;12.80;99.90;;;;;;4973856;28;20113;-68
2023/11/02 05:37:46;;;;;;;2.15;0.70;;;12.80;99.90;;;;;;4973634;28;20097;-75
2023/11/02 05:40:12;;;;;;;3.42;1.00;;;12.90;99.90;;;;;;4975327;28;20555;-72
2023/11/02 05:42:38;;;;;;;2.50;0.50;;;12.80;99.90;;;;;;4972545;28;20030;-70
2023/11/02 05:45:04;;;;;;;2.47;0.88;;;12.90;99.90;;;;;;4974447;28;20050;-70
2023/11/02 05:47:30;;;;;;;1.50;0.63;;;12.90;99.90;;;;;;4975643;28;20034;-70
2023/11/02 05:49:55;;;;;;;4.90;0.80;;;12.80;99.90;;;;;;4974840;28;20022;-69
2023/11/02 05:52:21;;;;;;;1.88;0.80;;;12.80;99.90;;;;;;4972659;28;20518;-70
2023/11/02 05:54:47;;;;;;;1.67;0.60;;;12.70;99.90;;;;;;4974954;28;20421;-72
2023/11/02 05:57:14;;;;;;;1.98;0.50;;;12.60;99.90;;;;;;4974652;28;20050;-71
2023/11/02 05:59:40;;;;;;;3.80;0.60;;;12.50;99.90;;;;;;4975183;28;20033;-71
2023/11/02 06:02:07;;;;;;;3.67;0.90;;;12.50;99.90;;;;;;4973441;28;20019;-70
2023/11/02 06:04:32;;;;;;;1.73;0.65;;;12.50;99.90;;;;;;4973644;28;20030;-70
2023/11/02 06:06:58;;;;;;;3.15;0.77;;;12.50;99.90;;;;;;4974839;28;20034;-71
2023/11/02 06:09:24;;;;;;;3.75;1.00;;;12.40;99.90;;;;;;4972571;28;20393;-70
2023/11/02 06:11:49;;;;;;;1.35;0.82;;;12.40;99.90;;;;;;4974717;28;20388;-70
2023/11/02 06:14:15;;;;;;;1.85;1.17;;;12.40;99.90;;;;;;4974194;28;20027;-68
2023/11/02 06:16:41;;;;;;;3.40;1.40;;;12.50;99.90;;;;;;4971510;28;20539;-68
2023/11/02 06:19:06;;;;;;;2.58;0.95;;;12.50;99.90;;;;;;4967412;28;20043;-69
2023/11/02 06:21:33;;;;;;;0.98;0.70;;;12.50;99.90;;;;;;4974663;28;20130;-71
2023/11/02 06:23:58;;;;;;;2.72;0.98;;;12.50;99.90;;;;;;4971467;28;20518;-68
2023/11/02 06:26:24;;;;;;;3.70;1.13;;;12.50;99.90;;;;;;4974302;28;20019;-69
2023/11/02 06:28:49;;;;;;;0.88;0.60;;;12.50;99.90;;;;;;4972013;28;20023;-68
2023/11/02 06:31:15;;;;;;;4.35;1.08;;;12.50;99.90;;;;;;4973755;28;20027;-68
2023/11/02 06:33:41;;;;;;;3.45;0.82;;;12.60;99.90;;;;;;4974377;28;20049;-69
2023/11/02 06:36:07;;;;;;;1.98;0.68;;;12.60;99.90;;;;;;4972825;28;20066;-68
2023/11/02 06:38:33;;;;;;;1.92;0.82;;;12.60;99.90;;;;;;4974643;28;20033;-71
2023/11/02 06:41:00;;;;;;;1.50;0.60;;;12.60;99.90;;;;;;4974183;28;20023;-68
2023/11/02 06:43:27;;;;;;;0.85;0.50;;;12.70;99.90;;;;;;4970335;28;20022;-69
2023/11/02 06:45:53;;;;;;;1.80;0.65;;;12.60;99.90;;;;;;4970980;28;20554;-69
2023/11/02 06:48:19;;;;;;;1.05;0.80;;;12.70;99.90;;;;;;4973486;28;20034;-69
2023/11/02 06:50:46;;;;;;;2.65;0.82;;;12.70;99.90;;;;;;4973889;28;20579;-72
2023/11/02 06:53:12;;;;;;;1.40;0.70;;;12.80;99.90;;;;;;4974337;28;20019;-68
2023/11/02 06:55:40;;;;;;;3.05;0.93;;;12.80;99.90;;;;;;4970261;28;20077;-70
2023/11/02 06:58:06;;;;;;;1.58;0.90;;;12.80;99.90;;;;;;4973278;28;20118;-69
2023/11/02 07:00:31;;;;;;;3.85;1.00;;;12.80;99.90;;;;;;4973831;28;20097;-68
2023/11/02 07:02:57;;;;;;;1.92;0.85;;;12.90;99.90;;;;;;4972463;28;20027;-68
2023/11/02 07:05:23;;;;;;;1.02;0.50;;;12.90;99.90;;;;;;4970836;28;20041;-69
2023/11/02 07:07:49;;;;;;;2.60;0.70;;;13.00;99.90;;;;;;4973060;28;20023;-72
2023/11/02 07:10:16;;;;;;;2.50;0.80;;;12.90;99.90;;;;;;4963614;28;20043;-69
2023/11/02 07:12:42;;;;;;;2.20;0.80;;;12.90;99.90;;;;;;4973670;28;20081;-71
2023/11/02 07:15:08;;;;;;;5.00;0.88;;;13.00;99.90;;;;;;4973147;28;20019;-75
2023/11/02 07:17:34;;;;;;;1.40;0.93;;;13.00;99.90;;;;;;4972499;28;20041;-74
2023/11/02 07:19:59;;;;;;;3.05;1.00;;;13.10;99.90;;;;;;4969905;28;20030;-71
2023/11/02 07:22:25;;;;;;;4.45;1.00;;;13.20;99.90;;;;;;4972518;28;20206;-70
2023/11/02 07:24:51;;;;;;;3.15;1.10;;;13.20;99.90;;;;;;4971417;28;20035;-72
2023/11/02 07:27:16;;;;;;;1.77;0.88;;;13.30;99.90;;;;;;4972530;28;20041;-76
2023/11/02 07:29:43;;;;;;;3.22;1.15;;;13.30;99.90;;;;;;4968699;28;20110;-69
2023/11/02 07:32:10;;;;;;;3.10;1.20;;;13.40;99.90;;;;;;4969216;28;20495;-71
2023/11/02 07:34:35;;;;;;;4.80;1.30;;;13.40;99.90;;;;;;4973389;28;20061;-70
2023/11/02 07:37:01;;;;;;;6.88;1.50;;;13.40;99.90;;;;;;4973125;28;20499;-73
2023/11/02 07:39:29;;;;;;;4.50;1.50;;;13.40;99.90;;;;;;4970511;28;20090;-70
2023/11/02 07:41:55;;;;;;;6.68;1.30;;;13.40;99.90;;;;;;4971046;28;20034;-70
2023/11/02 07:44:21;;;;;;;6.57;1.50;;;13.50;99.90;;;;;;4968439;28;20097;-70
2023/11/02 07:46:46;;;;;;;9.32;1.30;;;13.50;99.90;;;;;;4970908;28;20388;-73
2023/11/02 07:49:12;;;;;;;4.65;0.93;;;13.50;99.90;;;;;;4972862;28;20476;-71
2023/11/02 07:51:38;;;;;;;6.30;1.42;;;13.50;99.90;;;;;;4972519;28;20058;-72
2023/11/02 07:54:04;;;;;;;4.15;1.63;;;13.60;99.90;;;;;;4970245;28;20534;-71
2023/11/02 07:56:29;;;;;;;5.13;1.05;;;13.60;99.90;;;;;;4970993;28;20038;-74
2023/11/02 07:58:55;;;;;;;8.15;0.98;;;13.60;99.90;;;;;;4970789;28;20807;-76
2023/11/02 08:01:24;;;;;;;7.72;0.98;;;13.70;99.90;;;;;;4972007;28;20023;-71
2023/11/02 08:03:49;;;;;;;5.38;1.42;;;13.80;99.90;;;;;;4971979;28;20027;-70
2023/11/02 08:06:15;;;;;;;8.18;1.40;;;13.80;99.90;;;;;;4969440;28;20035;-77
2023/11/02 08:08:41;;;;;;;4.72;1.17;;;13.80;99.90;;;;;;4972071;28;20117;-71
2023/11/02 08:11:07;;;;;;;6.90;1.73;;;13.80;99.90;;;;;;4971634;28;20035;-70
2023/11/02 08:13:32;;;;;;;4.38;1.30;;;13.80;99.90;;;;;;4972076;28;20015;-71
2023/11/02 08:15:58;;;;;;;3.80;1.05;;;13.90;99.90;;;;;;4969309;28;20039;-71
2023/11/02 08:18:24;;;;;;;5.03;1.15;;;13.90;99.90;;;;;;4970507;28;20027;-70
2023/11/02 08:20:49;;;;;;;6.60;1.45;;;14.00;99.90;;;;;;4971945;28;20383;-75
2023/11/02 08:23:16;;;;;;;6.53;1.20;;;13.90;99.90;;;;;;4969256;28;20034;-76
2023/11/02 08:25:42;;;;;;;4.25;1.38;;;14.10;99.90;;;;;;4972568;28;20042;-73
2023/11/02 08:28:08;;;;;;;6.80;1.58;;;14.10;99.90;;;;;;4969530;28;20357;-75
2023/11/02 08:30:34;;;;;;;8.27;1.30;;;14.10;99.90;;;;;;4972755;28;20088;-75
2023/11/02 08:32:59;;;;;;;4.28;0.88;;;14.20;99.90;;;;;;4970142;28;20469;-70
2023/11/02 08:35:25;;;;;;;6.10;1.48;;;14.20;99.90;;;;;;4972123;28;20031;-70
2023/11/02 08:37:51;;;;;;;6.50;1.40;;;14.10;99.90;;;;;;4970162;28;20054;-72
2023/11/02 08:40:19;;;;;;;7.60;1.73;;;14.20;99.90;;;;;;4972040;28;20105;-70
2023/11/02 08:42:45;;;;;;;10.68;1.10;;;14.20;99.90;;;;;;4972745;28;20050;-71
2023/11/02 08:45:15;;;;;;;7.82;1.40;;;14.30;99.90;;;;;;4968645;28;20504;-74
2023/11/02 08:47:42;;;;;;;8.85;1.20;;;14.30;99.90;;;;;;4970868;28;20435;-76
2023/11/02 08:50:10;;;;;;;5.65;1.17;;;14.40;99.90;;;;;;4972747;28;20027;-71
2023/11/02 08:52:36;;;;;;;10.70;1.45;;;14.50;99.90;;;;;;4972465;28;20026;-68
2023/11/02 08:55:03;;;;;;;8.50;1.60;;;14.60;99.90;;;;;;4972496;28;20527;-71
2023/11/02 08:57:29;;;;;;;5.50;1.25;;;14.60;99.90;;;;;;4972362;28;20023;-71
2023/11/02 08:59:58;;;;;;;10.18;1.45;;;14.70;99.90;;;;;;4968318;28;20026;-71
2023/11/02 09:02:25;;;;;;;8.40;1.30;;;14.70;99.90;;;;;;4972261;28;20019;-72
2023/11/02 09:04:52;;;;;;;3.15;1.23;;;14.80;99.90;;;;;;4968147;28;20385;-73
2023/11/02 09:07:18;;;;;;;6.68;1.00;;;14.80;99.90;;;;;;4972240;28;20203;-72
2023/11/02 09:09:44;;;;;;;6.80;1.15;;;14.80;99.90;;;;;;4969464;28;20061;-69
2023/11/02 09:12:10;;;;;;;7.63;1.92;;;14.70;99.90;;;;;;4972000;28;20481;-72
2023/11/02 09:14:36;;;;;;;6.75;1.30;;;14.80;99.90;;;;;;4969797;28;20100;-72
2023/11/02 09:17:02;;;;;;;7.72;1.33;;;14.80;99.90;;;;;;4971606;28;20114;-76
2023/11/02 09:19:28;;;;;;;6.72;1.65;;;14.90;99.90;;;;;;4969721;28;20391;-75
2023/11/02 09:21:54;;;;;;;7.32;1.58;;;15.00;99.90;;;;;;4971121;28;20019;-77
2023/11/02 09:24:19;;;;;;;9.15;1.70;;;15.00;99.90;;;;;;4970487;28;20034;-70
2023/11/02 09:26:45;;;;;;;7.35;1.58;;;15.10;99.90;;;;;;4970202;28;20512;-79
2023/11/02 09:29:11;;;;;;;11.25;2.13;;;15.10;99.90;;;;;;4971208;28;20180;-73
2023/11/02 09:31:37;;;;;;;5.60;1.83;;;15.00;99.90;;;;;;4970635;28;20034;-75
2023/11/02 15:09:12;;;;;;;8.77;2.22;;;13.60;99.90;;;;;;5063331;28;20407;-73
2023/11/02 15:11:39;;;;;;;10.90;3.00;;;14.00;99.90;;;;;;5064444;28;20049;-70
2023/11/02 15:14:05;;;;;;;9.73;1.52;;;14.20;99.90;;;;;;5053485;27;20026;-70
2023/11/02 15:16:32;;;;;;;10.82;2.10;;;14.20;99.90;;;;;;5060627;28;20025;-71
2023/11/02 15:18:58;;;;;;;11.45;1.90;;;14.20;99.90;;;;;;5056208;28;20112;-71
2023/11/02 15:21:25;;;;;;;7.30;1.52;;;14.30;99.90;;;;;;5039759;27;20086;-71
2023/11/02 15:23:51;;;;;;;5.90;2.15;;;14.20;99.90;;;;;;5023644;27;20013;-72
2023/11/02 15:26:23;;;;;;;5.68;1.52;;;14.30;99.90;;;;;;5055016;27;20472;-71
2023/11/02 15:28:49;;;;;;;4.80;1.60;;;14.30;99.90;;;;;;5049412;27;20025;-71
2023/11/02 15:31:19;;;;;;;6.65;2.03;;;14.20;99.90;;;;;;5048721;27;20060;-69
2023/11/02 15:33:45;;;;;;;6.85;1.65;;;14.40;99.90;;;;;;5049405;27;20365;-71
2023/11/02 15:36:11;;;;;;;8.77;1.80;;;14.30;99.90;;;;;;5052126;27;20029;-70
2023/11/02 15:38:37;;;;;;;10.80;2.08;;;14.30;99.90;;;;;;5046051;27;20041;-71
2023/11/02 15:41:03;;;;;;;13.90;2.50;;;14.30;99.90;;;;;;5052525;27;20028;-70
2023/11/02 15:43:30;;;;;;;7.68;1.80;;;14.20;99.90;;;;;;5057743;27;20029;-71
2023/11/02 15:45:55;;;;;;;9.70;2.38;;;14.20;99.90;;;;;;5052393;27;20575;-71
2023/11/02 15:48:21;;;;;;;8.05;1.50;;;14.20;99.90;;;;;;5054055;27;20036;-71
2023/11/02 15:50:47;;;;;;;8.25;1.98;;;14.20;99.90;;;;;;5052783;27;20033;-70
2023/11/02 15:53:16;;;;;;;6.97;1.35;;;14.20;99.90;;;;;;5054298;27;20025;-70
2023/11/02 15:55:45;;;;;;;7.32;1.80;;;14.10;99.90;;;;;;5053178;27;20994;-71
2023/11/02 15:58:10;;;;;;;9.55;2.92;;;14.20;99.90;;;;;;5132098;27;20472;-73
2023/11/02 16:00:36;;;;;;;12.20;2.47;;;14.20;99.90;;;;;;5050288;27;20043;-71
2023/11/02 16:03:03;;;;;;;9.57;1.92;;;14.20;99.90;;;;;;5050139;27;20033;-70
2023/11/02 16:05:59;;;;;;;8.80;1.77;;;14.10;99.90;;;;;;5062818;27;20392;-73
2023/11/02 16:08:24;;;;;;;5.93;1.52;;;14.10;99.90;;;;;;5052163;28;20057;-73
2023/11/02 16:10:50;;;;;;;5.70;1.40;;;14.10;99.90;;;;;;5034829;28;20025;-73
2023/11/02 16:13:17;;;;;;;6.88;1.58;;;14.00;99.90;;;;;;5041608;27;20055;-73
2023/11/02 16:15:42;;;;;;;5.75;1.15;;;13.90;99.90;;;;;;5040832;27;20032;-74
2023/11/02 16:18:08;;;;;;;9.05;1.40;;;14.00;99.90;;;;;;5035940;28;20033;-70
2023/11/02 16:20:35;;;;;;;5.32;1.30;;;14.00;99.90;;;;;;5041585;28;20493;-71
2023/11/02 16:23:01;;;;;;;5.05;1.25;;;13.90;99.90;;;;;;5044726;28;20041;-70
2023/11/02 16:25:27;;;;;;;11.05;1.98;;;14.00;99.90;;;;;;5039162;28;20032;-73
2023/11/02 16:27:53;;;;;;;5.30;1.33;;;13.90;99.90;;;;;;5052646;27;20045;-74
2023/11/02 16:30:18;;;;;;;13.40;2.20;;;13.90;99.90;;;;;;5040512;28;20496;-73
2023/11/02 16:32:44;;;;;;;11.10;1.50;;;14.00;99.90;;;;;;5044174;27;20025;-71
2023/11/02 16:35:10;;;;;;;6.45;1.42;;;14.00;99.90;;;;;;5037937;27;20491;-72
2023/11/02 16:37:35;;;;;;;8.90;1.92;;;14.00;99.90;;;;;;5042380;28;20637;-73
2023/11/02 16:40:06;;;;;;;7.80;1.73;;;14.00;99.90;;;;;;5048180;27;20033;-69
2023/11/02 16:42:35;;;;;;;7.68;1.77;;;13.90;99.90;;;;;;5044632;27;20082;-70
2023/11/02 16:45:01;;;;;;;12.88;2.30;;;13.90;99.90;;;;;;5044958;27;20017;-72
2023/11/02 16:47:27;;;;;;;8.65;2.03;;;14.00;99.90;;;;;;5038999;28;20036;-71
2023/11/02 16:49:53;;;;;;;11.52;2.40;;;13.90;99.90;;;;;;5038255;28;20017;-72
2023/11/02 16:52:19;;;;;;;10.57;2.03;;;13.80;99.90;;;;;;5048604;28;20021;-71
2023/11/02 16:54:44;;;;;;;13.10;2.58;;;13.80;99.90;;;;;;5047916;27;20017;-70
2023/11/02 16:57:10;;;;;;;12.80;2.58;;;13.80;99.90;;;;;;5050529;28;20109;-73
2023/11/02 16:59:36;;;;;;;6.60;2.03;;;13.80;99.90;;;;;;5035682;28;20041;-70
2023/11/02 17:02:02;;;;;;;8.43;2.20;;;13.80;99.90;;;;;;5038091;28;20060;-72
2023/11/02 17:04:28;;;;;;;5.65;1.90;;;13.80;99.90;;;;;;5038957;28;20045;-75
2023/11/02 17:06:54;;;;;;;5.55;1.35;;;13.70;99.90;;;;;;5039421;28;20112;-70
2023/11/02 17:09:19;;;;;;;5.28;1.25;;;13.60;99.90;;;;;;5040990;27;20120;-70
2023/11/02 17:11:45;;;;;;;5.70;1.70;;;13.60;99.90;;;;;;5037481;27;20078;-70
2023/11/02 17:14:10;;;;;;;9.38;1.50;;;13.50;99.90;;;;;;5042663;28;20383;-73
2023/11/02 17:16:40;;;;;;;7.38;1.50;;;13.50;99.90;;;;;;5043525;28;20029;-72
2023/11/02 17:19:05;;;;;;;8.18;1.50;;;13.50;99.90;;;;;;5050646;27;20111;-70
2023/11/02 17:21:31;;;;;;;11.07;2.10;;;13.50;99.90;;;;;;5039946;28;20521;-69
2023/11/02 17:23:57;;;;;;;6.63;1.48;;;13.50;99.90;;;;;;5048208;28;20121;-68
2023/11/02 17:26:26;;;;;;;6.18;1.13;;;13.50;99.90;;;;;;5034458;28;20389;-70
2023/11/02 17:28:52;;;;;;;7.35;1.13;;;13.40;99.90;;;;;;5046215;28;20104;-69
2023/11/02 17:31:18;;;;;;;6.47;1.08;;;13.50;99.90;;;;;;5033458;28;20020;-69
2023/11/02 17:33:44;;;;;;;6.03;1.58;;;13.60;99.90;;;;;;5039909;27;20033;-68
2023/11/02 17:36:10;;;;;;;6.80;1.30;;;13.60;99.90;;;;;;5045971;27;20077;-70
2023/11/02 17:38:37;;;;;;;3.15;1.20;;;13.50;99.90;;;;;;5034893;27;20060;-70
2023/11/02 17:41:03;;;;;;;7.50;1.40;;;13.60;99.90;;;;;;5040598;28;20033;-68
2023/11/02 17:43:29;;;;;;;9.52;1.70;;;13.50;99.90;;;;;;5042032;27;20029;-69
2023/11/02 17:45:54;;;;;;;6.60;1.75;;;13.50;99.90;;;;;;5038475;27;20036;-69
2023/11/02 17:48:21;;;;;;;5.82;1.25;;;13.50;99.90;;;;;;5039176;28;20032;-69
2023/11/02 17:50:47;;;;;;;7.15;1.58;;;13.40;99.90;;;;;;5044089;27;20101;-71
2023/11/02 17:53:13;;;;;;;8.25;2.00;;;13.50;99.90;;;;;;5045826;27;21438;-69
2023/11/02 17:55:42;;;;;;;7.13;1.90;;;13.40;99.90;;;;;;5059501;27;20100;-70
2023/11/02 17:58:08;;;;;;;3.08;1.10;;;13.50;99.90;;;;;;5057030;27;20614;-71
2023/11/02 18:00:35;;;;;;;6.10;1.58;;;13.40;99.90;;;;;;5035314;27;20587;-69
2023/11/02 18:03:04;;;;;;;5.78;0.95;;;13.40;99.90;;;;;;5043694;27;20025;-71
2023/11/02 18:05:40;;;;;;;5.88;0.98;;;13.50;99.90;;;;;;5036968;28;20025;-69
2023/11/02 18:08:06;;;;;;;4.43;1.23;;;13.40;99.90;;;;;;5038932;27;20033;-70
2023/11/02 18:10:32;;;;;;;4.25;1.27;;;13.50;99.90;;;;;;5045408;27;20025;-69
2023/11/02 18:12:58;;;;;;;7.20;1.45;;;13.50;99.90;;;;;;5040871;27;20635;-71
2023/11/02 18:15:28;;;;;;;7.10;1.40;;;13.50;99.90;;;;;;5053418;27;20473;-70
2023/11/02 18:17:55;;;;;;;6.97;1.23;;;13.50;99.90;;;;;;5075458;27;20489;-72
2023/11/02 18:20:20;;;;;;;4.93;1.45;;;13.50;99.90;;;;;;5070396;27;20021;-70
2023/11/02 18:22:46;;;;;;;5.45;1.65;;;13.40;99.90;;;;;;5062603;27;20032;-69
2023/11/02 18:25:14;;;;;;;5.15;1.40;;;13.40;99.90;;;;;;5039715;27;20519;-70
2023/11/02 18:27:40;;;;;;;2.70;1.10;;;13.30;99.90;;;;;;5043141;27;20045;-76
2023/11/02 18:30:08;;;;;;;4.20;1.25;;;13.30;99.90;;;;;;5049719;27;20157;-72